Time;durP1;ratioP1;P1;durP2;ratioP2;P2;SDS_P1;SDS_P2;PMS_P1;PMS_P2;Temp;Humidity;BMP_temperature;BMP_pressure;BME280_temperature;BME280_humidity;BME280_pressure;Samples;Min_cycle;Max_cycle;Signal;HPM_P1;HPM_P2
2023/08/27 00:00:54;;;;;;;;;;;;;;;-144.99;100.00;52354.34;4999384;28;19957;-68
2023/08/27 00:03:21;;;;;;;;;;;;;;;-144.99;100.00;52342.09;5005527;28;20287;-69
2023/08/27 00:05:48;;;;;;;;;;;;;;;-144.99;100.00;52380.84;5000702;28;20079;-71
2023/08/27 00:08:14;;;;;;;;;;;;;;;-144.99;100.00;52366.56;5001176;28;20467;-67
2023/08/27 00:10:41;;;;;;;;;;;;;;;-144.99;100.00;52384.91;4999756;28;19946;-65
2023/08/27 00:13:07;;;;;;;;;;;;;;;-144.99;100.00;52350.25;4995136;28;20528;-64
2023/08/27 00:15:34;;;;;;;;;;;;;;;-144.99;100.00;52403.25;4996562;28;20383;-64
2023/08/27 00:18:03;;;;;;;;;;;;;;;-144.99;100.00;52358.41;4995412;28;20040;-65
2023/08/27 00:20:33;;;;;;;;;;;;;;;-144.99;100.00;52374.72;4998504;28;20804;-65
2023/08/27 00:22:59;;;;;;;;;;;;;;;-144.99;100.00;52386.94;4998536;28;20202;-66
2023/08/27 00:25:26;;;;;;;;;;;;;;;-144.99;100.00;52352.28;4996050;28;19981;-67
2023/08/27 00:27:52;;;;;;;;;;;;;;;-144.99;100.00;52384.91;4996790;28;20169;-67
2023/08/27 00:30:19;;;;;;;;;;;;;;;-144.99;100.00;52407.31;4997826;28;20039;-69
2023/08/27 00:32:45;;;;;;;;;;;;;;;-144.99;100.00;52362.50;4996687;28;19977;-68
2023/08/27 00:35:13;;;;;;;;;;;;;;;-144.99;100.00;52378.78;4994842;28;19945;-67
2023/08/27 00:37:40;;;;;;;;;;;;;;;-144.99;100.00;52397.13;4995952;28;19951;-68
2023/08/27 00:40:07;;;;;;;;;;;;;;;-144.99;100.00;52356.38;4996281;28;19946;-68
2023/08/27 00:42:33;;;;;;;;;;;;;;;-144.99;100.00;52370.63;5004655;28;20418;-67
2023/08/27 00:45:00;;;;;;;;;;;;;;;-144.99;100.00;52374.72;4657834;28;9999653;-67
2023/08/27 00:47:27;;;;;;;;;;;;;;;-144.99;100.00;52354.34;5004431;28;20035;-66
2023/08/27 00:49:53;;;;;;;;;;;;;;;-144.99;100.00;52362.50;4997562;28;20412;-66
2023/08/27 00:52:21;;;;;;;;;;;;;;;-144.99;100.00;52378.78;5004268;28;20008;-67
2023/08/27 00:54:48;;;;;;;;;;;;;;;-144.99;100.00;52376.75;5006211;28;19948;-66
2023/08/27 00:57:15;;;;;;;;;;;;;;;-144.99;100.00;52329.88;5000159;28;19952;-67
2023/08/27 00:59:42;;;;;;;;;;;;;;;-144.99;100.00;52374.72;5002877;28;19943;-67
2023/08/27 01:02:08;;;;;;;;;;;;;;;-144.99;100.00;52340.06;5006065;28;19963;-62
2023/08/27 01:04:35;;;;;;;;;;;;;;;-144.99;100.00;52354.34;4999418;28;19950;-63
2023/08/27 01:07:05;;;;;;;;;;;;;;;-144.99;100.00;52380.84;5015150;22;19931;-62
2023/08/27 01:09:36;;;;;;;;;;;;;;;-144.99;100.00;52370.63;5036556;28;20346;-63
2023/08/27 01:12:08;;;;;;;;;;;;;;;-144.99;100.00;52362.50;5034477;28;20048;-63
2023/08/27 01:14:37;;;;;;;;;;;;;;;-144.99;100.00;52374.72;5024789;28;20151;-63
2023/08/27 01:17:05;;;;;;;;;;;;;;;-144.99;100.00;52346.19;5027185;28;20065;-63
2023/08/27 01:19:33;;;;;;;;;;;;;;;-144.99;100.00;52368.59;5024736;28;20111;-63
2023/08/27 01:22:00;;;;;;;;;;;;;;;-144.99;100.00;52366.56;5028464;28;19964;-63
2023/08/27 01:24:27;;;;;;;;;;;;;;;-144.99;100.00;52313.56;5022418;28;20036;-63
2023/08/27 01:26:55;;;;;;;;;;;;;;;-144.99;100.00;52415.47;5025842;28;19980;-63
2023/08/27 01:29:25;;;;;;;;;;;;;;;-144.99;100.00;52395.09;5021295;28;19943;-64
2023/08/27 01:31:54;;;;;;;;;;;;;;;-144.99;100.00;52395.09;5022159;28;19967;-68
2023/08/27 01:34:22;;;;;;;;;;;;;;;-144.99;100.00;52321.72;5020194;28;20069;-65
2023/08/27 01:36:49;;;;;;;;;;;;;;;-144.99;100.00;52366.56;5021302;28;21425;-65
2023/08/27 01:39:17;;;;;;;;;;;;;;;-144.99;100.00;52397.13;5021258;28;20033;-65
2023/08/27 01:41:43;;;;;;;;;;;;;;;-144.99;100.00;52395.09;5023113;28;20096;-65
2023/08/27 01:44:10;;;;;;;;;;;;;;;-144.99;100.00;52358.41;5021625;28;20333;-65
2023/08/27 01:46:36;;;;;;;;;;;;;;;-144.99;100.00;52439.94;5018111;28;19947;-65
2023/08/27 01:49:03;;;;;;;;;;;;;;;-144.99;100.00;52386.94;5018212;28;19989;-66
2023/08/27 01:51:30;;;;;;;;;;;;;;;-144.99;100.00;52374.72;5020304;28;20402;-65
2023/08/27 01:53:56;;;;;;;;;;;;;;;-144.99;100.00;52374.72;5019799;28;19965;-65
2023/08/27 01:56:24;;;;;;;;;;;;;;;-144.99;100.00;52374.72;5018036;28;20518;-65
2023/08/27 01:58:51;;;;;;;;;;;;;;;-144.99;100.00;52382.88;5018631;28;20030;-65
2023/08/27 02:01:18;;;;;;;;;;;;;;;-144.99;100.00;52407.31;5017477;28;20034;-64
2023/08/27 02:03:45;;;;;;;;;;;;;;;-144.99;100.00;52370.63;5017858;28;20339;-64
2023/08/27 02:06:11;;;;;;;;;;;;;;;-144.99;100.00;52378.78;5017614;28;20464;-65
2023/08/27 02:08:38;;;;;;;;;;;;;;;-144.99;100.00;52399.19;5019583;28;20044;-67
2023/08/27 02:11:04;;;;;;;;;;;;;;;-144.99;100.00;52399.19;5017754;28;19945;-68
2023/08/27 02:13:32;;;;;;;;;;;;;;;-144.99;100.00;52382.88;5016714;28;20063;-70
2023/08/27 02:15:58;;;;;;;;;;;;;;;-144.99;100.00;52378.78;5022820;28;20441;-71
2023/08/27 02:18:25;;;;;;;;;;;;;;;-144.99;100.00;52374.72;5019018;28;20025;-70
2023/08/27 02:20:51;;;;;;;;;;;;;;;-144.99;100.00;52354.34;5017252;28;20482;-68
2023/08/27 02:23:18;;;;;;;;;;;;;;;-144.99;100.00;52391.03;5018204;28;19981;-70
2023/08/27 02:25:44;;;;;;;;;;;;;;;-144.99;100.00;52399.19;5018672;28;20479;-68
2023/08/27 02:28:11;;;;;;;;;;;;;;;-144.99;100.00;52391.03;5018533;28;19950;-69
2023/08/27 02:30:38;;;;;;;;;;;;;;;-144.99;100.00;52354.34;5016894;28;19946;-68
2023/08/27 02:33:05;;;;;;;;;;;;;;;-144.99;100.00;52372.69;5016370;28;20010;-68
2023/08/27 02:35:31;;;;;;;;;;;;;;;-144.99;100.00;52382.88;5016561;28;20433;-68
2023/08/27 02:37:58;;;;;;;;;;;;;;;-144.99;100.00;52395.09;5019088;28;19941;-68
2023/08/27 02:40:24;;;;;;;;;;;;;;;-144.99;100.00;52356.38;5016666;28;20044;-67
2023/08/27 02:42:51;;;;;;;;;;;;;;;-144.99;100.00;52391.03;5019828;28;20441;-66
2023/08/27 02:45:19;;;;;;;;;;;;;;;-144.99;100.00;52391.03;5029319;28;20434;-67
2023/08/27 02:47:47;;;;;;;;;;;;;;;-144.99;100.00;52358.41;5020061;28;19947;-67
2023/08/27 02:50:14;;;;;;;;;;;;;;;-144.99;100.00;52388.97;5024576;28;19942;-65
2023/08/27 02:52:41;;;;;;;;;;;;;;;-144.99;100.00;52374.72;5023005;28;19985;-66
2023/08/27 02:55:08;;;;;;;;;;;;;;;-144.99;100.00;52391.03;5021355;28;19940;-66
2023/08/27 02:57:34;;;;;;;;;;;;;;;-144.99;100.00;52382.88;5018728;28;19962;-69
2023/08/27 03:00:01;;;;;;;;;;;;;;;-144.99;100.00;52382.88;5017347;28;19952;-66
2023/08/27 03:02:27;;;;;;;;;;;;;;;-144.99;100.00;52395.09;5017618;28;20030;-65
2023/08/27 03:04:55;;;;;;;;;;;;;;;-144.99;100.00;52382.88;5018604;28;20077;-64
2023/08/27 03:07:22;;;;;;;;;;;;;;;-144.99;100.00;52386.94;5018950;28;19953;-64
2023/08/27 03:09:48;;;;;;;;;;;;;;;-144.99;100.00;52409.38;5016924;28;19949;-65
2023/08/27 03:12:15;;;;;;;;;;;;;;;-144.99;100.00;52395.09;5017583;28;20000;-64
2023/08/27 03:14:41;;;;;;;;;;;;;;;-144.99;100.00;52382.88;5019510;28;20138;-65
2023/08/27 03:17:08;;;;;;;;;;;;;;;-144.99;100.00;52439.94;5016708;28;20034;-70
2023/08/27 03:19:34;;;;;;;;;;;;;;;-144.99;100.00;52407.31;5017087;28;20198;-68
2023/08/27 03:22:02;;;;;;;;;;;;;;;-144.99;100.00;52401.22;5015369;28;20359;-64
2023/08/27 03:24:29;;;;;;;;;;;;;;;-144.99;100.00;52342.09;5018804;28;19946;-66
2023/08/27 03:26:55;;;;;;;;;;;;;;;-144.99;100.00;52399.19;5016799;28;19938;-66
2023/08/27 03:29:22;;;;;;;;;;;;;;;-144.99;100.00;52399.19;5017289;28;19993;-65
2023/08/27 03:31:48;;;;;;;;;;;;;;;-144.99;100.00;52362.50;5014956;28;20005;-65
2023/08/27 03:34:15;;;;;;;;;;;;;;;-144.99;100.00;52362.50;5030736;28;19941;-65
2023/08/27 03:36:41;;;;;;;;;;;;;;;-144.99;100.00;52415.47;5021272;28;20003;-65
2023/08/27 03:39:10;;;;;;;;;;;;;;;-144.99;100.00;52407.31;5017669;28;20005;-64
2023/08/27 03:41:37;;;;;;;;;;;;;;;-144.99;100.00;52370.63;5016601;28;19940;-64
2023/08/27 03:44:03;;;;;;;;;;;;;;;-144.99;100.00;52391.03;5013720;28;20492;-61
2023/08/27 03:46:30;;;;;;;;;;;;;;;-144.99;100.00;52403.25;5015582;28;20037;-60
2023/08/27 03:48:59;;;;;;;;;;;;;;;-144.99;100.00;52354.34;5015359;28;20009;-68
2023/08/27 03:51:28;;;;;;;;;;;;;;;-144.99;100.00;52372.69;5020926;28;20404;-67
2023/08/27 03:53:55;;;;;;;;;;;;;;;-144.99;100.00;52399.19;5022669;28;19951;-68
2023/08/27 03:56:22;;;;;;;;;;;;;;;-144.99;100.00;52415.47;5018228;28;19949;-69
2023/08/27 03:58:49;;;;;;;;;;;;;;;-144.99;100.00;52370.63;5016494;28;19986;-69
2023/08/27 04:01:15;;;;;;;;;;;;;;;-144.99;100.00;52382.88;5017343;28;20035;-70
2023/08/27 04:03:42;;;;;;;;;;;;;;;-144.99;100.00;52360.44;5015858;28;20318;-70
2023/08/27 04:06:10;;;;;;;;;;;;;;;-144.99;100.00;52391.03;5016688;28;19995;-67
2023/08/27 04:08:36;;;;;;;;;;;;;;;-144.99;100.00;52336.00;5015561;28;20024;-67
2023/08/27 04:11:04;;;;;;;;;;;;;;;-144.99;100.00;52350.25;5017774;28;20077;-67
2023/08/27 04:13:31;;;;;;;;;;;;;;;-144.99;100.00;52411.41;5016630;28;20223;-66
2023/08/27 04:15:59;;;;;;;;;;;;;;;-144.99;100.00;52386.94;5017530;28;20391;-73
2023/08/27 04:18:25;;;;;;;;;;;;;;;-144.99;100.00;52372.69;5016060;28;19946;-72
2023/08/27 04:20:52;;;;;;;;;;;;;;;-144.99;100.00;52395.09;5016382;28;19977;-73
2023/08/27 04:23:18;;;;;;;;;;;;;;;-144.99;100.00;52378.78;5016045;28;19963;-70
2023/08/27 04:25:45;;;;;;;;;;;;;;;-144.99;100.00;52395.09;5017569;28;20431;-70
2023/08/27 04:28:12;;;;;;;;;;;;;;;-144.99;100.00;52407.31;5017833;28;20647;-72
2023/08/27 04:30:40;;;;;;;;;;;;;;;-144.99;100.00;52366.56;5015110;28;20219;-72
2023/08/27 04:33:07;;;;;;;;;;;;;;;-144.99;100.00;52403.25;5015834;28;20496;-73
2023/08/27 04:35:33;;;;;;;;;;;;;;;-144.99;100.00;52386.94;5016349;28;20061;-73
2023/08/27 04:38:00;;;;;;;;;;;;;;;-144.99;100.00;52366.56;5019929;28;20281;-74
2023/08/27 04:40:26;;;;;;;;;;;;;;;-144.99;100.00;52407.31;5014762;28;19979;-62
2023/08/27 04:42:53;;;;;;;;;;;;;;;-144.99;100.00;52356.38;5016801;28;20371;-62
2023/08/27 04:45:19;;;;;;;;;;;;;;;-144.99;100.00;52419.56;5013612;28;19939;-62
2023/08/27 04:47:47;;;;;;;;;;;;;;;-144.99;100.00;52429.75;5015523;28;19981;-62
2023/08/27 04:50:14;;;;;;;;;;;;;;;-144.99;100.00;52370.63;5015761;28;20014;-62
2023/08/27 04:52:40;;;;;;;;;;;;;;;-144.99;100.00;52372.69;5018545;28;20006;-62
2023/08/27 04:55:07;;;;;;;;;;;;;;;-144.99;100.00;52388.97;5036113;28;20042;-63
2023/08/27 04:57:33;;;;;;;;;;;;;;;-144.99;100.00;52382.88;5032034;28;19985;-62
2023/08/27 05:00:00;;;;;;;;;;;;;;;-144.99;100.00;52415.47;5028345;28;20129;-63
2023/08/27 05:02:26;;;;;;;;;;;;;;;-144.99;100.00;52382.88;5027397;28;19992;-63
2023/08/27 05:04:54;;;;;;;;;;;;;;;-144.99;100.00;52366.56;5020177;28;20044;-61
2023/08/27 05:07:21;;;;;;;;;;;;;;;-144.99;100.00;52415.47;5017900;28;20005;-63
2023/08/27 05:09:47;;;;;;;;;;;;;;;-144.99;100.00;52391.03;5021703;28;20024;-63
2023/08/27 05:12:14;;;;;;;;;;;;;;;-144.99;100.00;52391.03;5017512;28;20443;-63
2023/08/27 05:14:41;;;;;;;;;;;;;;;-144.99;100.00;52382.88;5018636;28;19947;-63
2023/08/27 05:17:08;;;;;;;;;;;;;;;-144.99;100.00;52382.88;5019043;28;19941;-62
2023/08/27 05:19:34;;;;;;;;;;;;;;;-144.99;100.00;52368.59;5017452;28;19952;-63
2023/08/27 05:22:02;;;;;;;;;;;;;;;-144.99;100.00;52399.19;5019985;28;20012;-66
2023/08/27 05:24:29;;;;;;;;;;;;;;;-144.99;100.00;52358.41;5017897;28;19961;-70
2023/08/27 05:26:55;;;;;;;;;;;;;;;-144.99;100.00;52409.38;5019779;28;20045;-72
2023/08/27 05:29:22;;;;;;;;;;;;;;;-144.99;100.00;52358.41;5018911;28;20048;-67
2023/08/27 05:31:48;;;;;;;;;;;;;;;-144.99;100.00;52380.84;5022228;28;20017;-67
2023/08/27 05:34:15;;;;;;;;;;;;;;;-144.99;100.00;52382.88;5021691;28;19950;-68
2023/08/27 05:36:41;;;;;;;;;;;;;;;-144.99;100.00;52391.03;5017890;28;20344;-67
2023/08/27 05:39:09;;;;;;;;;;;;;;;-144.99;100.00;52407.31;5020177;28;20042;-63
2023/08/27 05:41:36;;;;;;;;;;;;;;;-144.99;100.00;52382.88;5016408;28;20045;-65
2023/08/27 05:44:02;;;;;;;;;;;;;;;-144.99;100.00;52350.25;5017655;28;19961;-64
2023/08/27 05:46:29;;;;;;;;;;;;;;;-144.99;100.00;52336.00;5024714;28;19948;-62
2023/08/27 05:48:55;;;;;;;;;;;;;;;-144.99;100.00;52382.88;5027759;28;19994;-61
2023/08/27 05:51:21;;;;;;;;;;;;;;;-144.99;100.00;52370.63;5027405;28;20062;-69
2023/08/27 05:53:48;;;;;;;;;;;;;;;-144.99;100.00;52386.94;5025575;28;19968;-69
2023/08/27 05:56:16;;;;;;;;;;;;;;;-144.99;100.00;52342.09;5023595;28;19953;-69
2023/08/27 05:58:43;;;;;;;;;;;;;;;-144.99;100.00;52329.88;5019266;28;20041;-70
2023/08/27 06:01:09;;;;;;;;;;;;;;;-144.99;100.00;52391.03;5027997;28;19946;-71
2023/08/27 06:03:36;;;;;;;;;;;;;;;-144.99;100.00;52382.88;5029060;28;19966;-69
2023/08/27 06:06:02;;;;;;;;;;;;;;;-144.99;100.00;52358.41;5022642;28;19942;-71
2023/08/27 06:08:29;;;;;;;;;;;;;;;-144.99;100.00;52386.94;5019234;28;19951;-63
2023/08/27 06:10:55;;;;;;;;;;;;;;;-144.99;100.00;52325.81;5018534;28;19951;-65
2023/08/27 06:13:23;;;;;;;;;;;;;;;-144.99;100.00;52370.63;5016255;28;20627;-64
2023/08/27 06:15:49;;;;;;;;;;;;;;;-144.99;100.00;52358.41;5016400;28;19984;-64
2023/08/27 06:18:16;;;;;;;;;;;;;;;-144.99;100.00;52407.31;5018658;28;19948;-64
2023/08/27 06:20:43;;;;;;;;;;;;;;;-144.99;100.00;52313.56;5015382;28;20045;-64
2023/08/27 06:23:09;;;;;;;;;;;;;;;-144.99;100.00;52380.84;5016189;28;19967;-67
2023/08/27 06:25:36;;;;;;;;;;;;;;;-144.99;100.00;52325.81;5013963;28;20453;-65
2023/08/27 06:28:04;;;;;;;;;;;;;;;-144.99;100.00;52344.16;5015507;28;20037;-63
2023/08/27 06:30:32;;;;;;;;;;;;;;;-144.99;100.00;52333.94;5014307;28;19957;-61
2023/08/27 06:32:58;;;;;;;;;;;;;;;-144.99;100.00;52362.50;5017916;28;19952;-62
2023/08/27 06:35:25;;;;;;;;;;;;;;;-144.99;100.00;52358.41;5016305;28;19996;-62
2023/08/27 06:37:51;;;;;;;;;;;;;;;-144.99;100.00;52366.56;5017071;28;20397;-62
2023/08/27 06:40:17;;;;;;;;;;;;;;;-144.99;100.00;52362.50;5016110;28;21523;-63
2023/08/27 06:42:44;;;;;;;;;;;;;;;-144.99;100.00;52346.19;5014030;28;20003;-63
2023/08/27 06:45:10;;;;;;;;;;;;;;;-144.99;100.00;52366.56;5014793;28;19957;-64
2023/08/27 06:47:38;;;;;;;;;;;;;;;-144.99;100.00;52342.09;5015491;28;20344;-68
2023/08/27 06:50:06;;;;;;;;;;;;;;;-144.99;100.00;52403.25;5016936;28;19998;-68
2023/08/27 06:52:33;;;;;;;;;;;;;;;-144.99;100.00;52303.38;5016540;28;20060;-71
2023/08/27 06:54:59;;;;;;;;;;;;;;;-144.99;100.00;52303.38;5016420;28;20047;-68
2023/08/27 06:57:26;;;;;;;;;;;;;;;-144.99;100.00;52325.81;5019656;28;19977;-68
2023/08/27 06:59:52;;;;;;;;;;;;;;;-144.99;100.00;52321.72;5014177;28;20032;-70
2023/08/27 07:02:18;;;;;;;;;;;;;;;-144.99;100.00;52325.81;5016553;28;19995;-71
2023/08/27 07:04:47;;;;;;;;;;;;;;;-144.99;100.00;52299.31;5013252;28;20028;-62
2023/08/27 07:07:14;;;;;;;;;;;;;;;-144.99;100.00;52301.34;5016554;28;20061;-70
2023/08/27 07:09:40;;;;;;;;;;;;;;;-144.99;100.00;52329.88;5016599;28;20071;-67
2023/08/27 07:12:07;;;;;;;;;;;;;;;-144.99;99.40;52327.84;5016936;28;19963;-69
2023/08/27 07:14:34;;;;;;;;;;;;;;;-144.99;98.23;52366.56;5013762;28;20340;-69
2023/08/27 07:17:00;;;;;;;;;;;;;;;-144.99;97.17;52346.19;5014596;28;20003;-67
2023/08/27 07:19:27;;;;;;;;;;;;;;;-144.99;97.28;52317.66;5013392;28;19944;-69
2023/08/27 07:21:55;;;;;;;;;;;;;;;-144.99;97.36;52346.19;5014478;28;19989;-69
2023/08/27 07:24:22;;;;;;;;;;;;;;;-144.99;98.44;52362.50;5014334;28;20197;-71
2023/08/27 07:26:48;;;;;;;;;;;;;;;-144.99;97.83;52321.72;5016479;28;19943;-71
2023/08/27 07:29:15;;;;;;;;;;;;;;;-144.99;99.63;52329.88;5030515;28;19945;-68
2023/08/27 07:31:41;;;;;;;;;;;;;;;-144.99;99.90;52311.53;5020281;28;19982;-68
2023/08/27 07:34:08;;;;;;;;;;;;;;;-144.99;100.00;52336.00;5017802;28;20490;-69
2023/08/27 07:36:34;;;;;;;;;;;;;;;-144.99;100.00;52313.56;5021123;28;19978;-70
2023/08/27 07:39:02;;;;;;;;;;;;;;;-144.99;100.00;52309.50;5018381;28;19958;-68
2023/08/27 07:41:29;;;;;;;;;;;;;;;-144.99;100.00;52338.03;5016983;28;19980;-70
2023/08/27 07:43:55;;;;;;;;;;;;;;;-144.99;98.03;52293.19;5014937;28;20026;-72
2023/08/27 07:46:22;;;;;;;;;;;;;;;-144.99;96.57;52325.81;5014798;28;20692;-69
2023/08/27 07:48:48;;;;;;;;;;;;;;;-144.99;95.06;52293.19;5013564;28;19993;-69
2023/08/27 07:51:15;;;;;;;;;;;;;;;-144.99;94.32;52317.66;5013558;28;20388;-72
2023/08/27 07:53:41;;;;;;;;;;;;;;;-144.99;94.37;52307.47;5017452;28;19996;-68
2023/08/27 07:56:10;;;;;;;;;;;;;;;-144.99;94.51;52321.72;5015489;28;20037;-68
2023/08/27 07:58:36;;;;;;;;;;;;;;;-144.99;94.51;52325.81;5016382;28;20052;-69
2023/08/27 08:01:04;;;;;;;;;;;;;;;-144.99;93.20;52317.66;5013772;28;19984;-69
2023/08/27 08:03:30;;;;;;;;;;;;;;;-144.99;92.59;52366.56;5016730;28;20565;-67
2023/08/27 08:05:57;;;;;;;;;;;;;;;-144.99;90.78;52329.88;5023066;28;19990;-67
2023/08/27 08:08:23;;;;;;;;;;;;;;;-144.99;91.27;52333.94;5028394;28;20067;-65
2023/08/27 08:10:50;;;;;;;;;;;;;;;-144.99;92.19;52325.81;5025105;28;19996;-66
2023/08/27 08:13:17;;;;;;;;;;;;;;;-144.99;91.26;52295.22;5020910;28;19997;-66
2023/08/27 08:15:47;;;;;;;;;;;;;;;-144.99;90.56;52303.38;5018305;28;20022;-66
2023/08/27 08:18:14;;;;;;;;;;;;;;;-144.99;89.70;52309.50;5014641;28;20410;-66
2023/08/27 08:20:40;;;;;;;;;;;;;;;-144.99;88.66;52305.41;5013930;28;21557;-67
2023/08/27 08:23:07;;;;;;;;;;;;;;;-144.99;88.02;52323.75;5014187;28;19959;-68
2023/08/27 08:25:36;;;;;;;;;;;;;;;-144.99;87.16;52272.81;5015355;28;19961;-68
2023/08/27 08:28:03;;;;;;;;;;;;;;;-144.99;85.55;52264.66;5015964;28;19956;-69
2023/08/27 08:30:31;;;;;;;;;;;;;;;-144.99;84.75;52260.56;5014376;28;20160;-68
2023/08/27 08:32:57;;;;;;;;;;;;;;;-144.99;84.29;52295.22;5016184;28;19973;-69
2023/08/27 08:35:25;;;;;;;;;;;;;;;-144.99;84.19;52280.97;5015598;28;20040;-68
2023/08/27 08:37:51;;;;;;;;;;;;;;;-144.99;82.64;52305.41;5015357;28;20043;-68
2023/08/27 08:40:18;;;;;;;;;;;;;;;-144.99;81.86;52280.97;5016131;28;19944;-68
2023/08/27 08:42:49;;;;;;;;;;;;;;;-144.99;80.88;52264.66;5015336;28;19958;-68
2023/08/27 08:45:20;;;;;;;;;;;;;;;-144.99;79.52;52295.22;5017124;28;19996;-69
2023/08/27 08:47:48;;;;;;;;;;;;;;;-144.99;79.74;52295.22;5021284;28;20031;-69
2023/08/27 08:50:17;;;;;;;;;;;;;;;-144.99;79.33;52260.56;5017753;28;19947;-69
2023/08/27 08:52:45;;;;;;;;;;;;;;;-144.99;79.27;52276.88;5017106;28;20071;-67
2023/08/27 08:55:15;;;;;;;;;;;;;;;-144.99;78.79;52248.34;5014791;28;20031;-69
2023/08/27 08:57:44;;;;;;;;;;;;;;;-144.99;76.38;52268.72;5015572;28;19948;-69
2023/08/27 09:00:11;;;;;;;;;;;;;;;-144.99;76.13;52307.47;4667300;28;10000383;-68
2023/08/27 09:02:38;;;;;;;;;;;;;;;-144.99;76.59;52299.31;5012041;28;19974;-67
2023/08/27 09:05:08;;;;;;;;;;;;;;;-144.99;76.30;52244.28;5021873;28;20708;-68
2023/08/27 09:07:36;;;;;;;;;;;;;;;-144.99;75.28;52280.97;5023955;28;20416;-71
2023/08/27 09:10:02;;;;;;;;;;;;;;;-144.99;76.25;52276.88;5016848;28;20051;-72
2023/08/27 09:12:30;;;;;;;;;;;;;;;-144.99;77.22;52246.31;5021180;28;20442;-74
2023/08/27 09:14:58;;;;;;;;;;;;;;;-144.99;75.76;52232.03;5018898;28;20027;-70
2023/08/27 09:17:24;;;;;;;;;;;;;;;-144.99;74.23;52289.13;5023978;28;20010;-71
2023/08/27 09:19:51;;;;;;;;;;;;;;;-144.99;73.77;52223.88;5023837;28;20746;-71
2023/08/27 09:22:19;;;;;;;;;;;;;;;-144.99;73.66;52217.78;5022460;28;19966;-71
2023/08/27 09:24:46;;;;;;;;;;;;;;;-144.99;73.42;52283.00;5026797;28;20060;-72
2023/08/27 09:27:13;;;;;;;;;;;;;;;-144.99;72.83;52262.63;5048500;28;20019;-72
2023/08/27 09:29:40;;;;;;;;;;;;;;;-144.99;72.85;52242.22;5027421;28;19996;-71
2023/08/27 09:32:07;;;;;;;;;;;;;;;-144.99;73.79;52236.13;5017063;28;20686;-72
2023/08/27 09:34:38;;;;;;;;;;;;;;;-144.99;75.08;52258.53;5018189;28;20022;-71
2023/08/27 09:37:06;;;;;;;;;;;;;;;-144.99;74.18;52252.44;5020978;28;20389;-71
2023/08/27 09:39:34;;;;;;;;;;;;;;;-144.99;74.31;52264.66;5020957;28;19948;-71
2023/08/27 09:42:01;;;;;;;;;;;;;;;-144.99;75.69;52276.88;5025019;28;20436;-71
2023/08/27 09:44:28;;;;;;;;;;;;;;;-144.99;75.07;52276.88;5019014;28;20418;-70
2023/08/27 09:47:03;;;;;;;;;;;;;;;-144.99;75.95;52285.03;5030991;28;20327;-71
2023/08/27 09:49:30;;;;;;;;;;;;;;;-144.99;76.31;52293.19;5025594;28;19967;-70
2023/08/27 09:51:57;;;;;;;;;;;;;;;-144.99;76.57;52280.97;5026499;28;19963;-70
2023/08/27 09:54:29;;;;;;;;;;;;;;;-144.99;76.54;52272.81;5019449;28;20489;-71
2023/08/27 09:56:59;;;;;;;;;;;;;;;-144.99;75.79;52289.13;5026553;28;19999;-71
2023/08/27 09:59:26;;;;;;;;;;;;;;;-144.99;76.70;52303.38;5026331;28;19986;-70
2023/08/27 10:01:53;;;;;;;;;;;;;;;-144.99;76.69;52305.41;5029498;28;19967;-70
2023/08/27 10:04:21;;;;;;;;;;;;;;;-144.99;77.26;52285.03;5031078;28;19986;-70
2023/08/27 10:06:48;;;;;;;;;;;;;;;-144.99;77.81;52285.03;5049159;28;20480;-70
2023/08/27 10:09:14;;;;;;;;;;;;;;;-144.99;78.60;52301.34;5026483;28;19953;-70
2023/08/27 10:11:44;;;;;;;;;;;;;;;-144.99;79.54;52307.47;5025137;28;19946;-69
2023/08/27 10:14:11;;;;;;;;;;;;;;;-144.99;78.89;52309.50;5024004;28;20608;-70
2023/08/27 10:16:39;;;;;;;;;;;;;;;-144.99;78.93;52252.44;5026334;28;20072;-69
2023/08/27 10:19:06;;;;;;;;;;;;;;;-144.99;78.29;52301.34;5026280;28;19962;-70
2023/08/27 10:21:32;;;;;;;;;;;;;;;-144.99;79.17;52293.19;5018089;28;19943;-70
2023/08/27 10:23:59;;;;;;;;;;;;;;;-144.99;79.21;52305.41;5027727;28;19945;-70
2023/08/27 10:26:25;;;;;;;;;;;;;;;-144.99;78.43;52303.38;5027351;28;19963;-71
2023/08/27 10:28:52;;;;;;;;;;;;;;;-144.99;77.82;52303.38;5031430;28;19979;-71
2023/08/27 10:31:20;;;;;;;;;;;;;;;-144.99;77.06;52309.50;5024093;28;20004;-71
2023/08/27 10:33:47;;;;;;;;;;;;;;;-144.99;77.43;52268.72;5023341;28;20088;-71
2023/08/27 10:36:16;;;;;;;;;;;;;;;-144.99;77.44;52285.03;5023465;28;20050;-71
2023/08/27 10:38:43;;;;;;;;;;;;;;;-144.99;77.15;52293.19;5027855;28;19960;-71
2023/08/27 10:41:10;;;;;;;;;;;;;;;-144.99;76.86;52280.97;5020958;28;19993;-70
2023/08/27 10:43:36;;;;;;;;;;;;;;;-144.99;77.35;52317.66;5029197;28;19969;-70
2023/08/27 10:46:10;;;;;;;;;;;;;;;-144.99;78.24;52301.34;5042453;28;19949;-71
2023/08/27 10:48:39;;;;;;;;;;;;;;;-144.99;78.56;52291.16;5023639;28;20235;-70
2023/08/27 10:51:09;;;;;;;;;;;;;;;-144.99;79.25;52291.16;5017683;28;20051;-71
2023/08/27 10:53:39;;;;;;;;;;;;;;;-144.99;78.88;52289.13;5026685;28;19965;-70
2023/08/27 10:56:25;;;;;;;;;;;;;;;-144.99;79.74;52293.19;5019369;28;20009;-70
2023/08/27 10:58:52;;;;;;;;;;;;;;;-144.99;80.04;52301.34;5015542;28;19977;-70
2023/08/27 11:01:19;;;;;;;;;;;;;;;-144.99;80.04;52317.66;5019987;28;19994;-70
2023/08/27 11:03:57;;;;;;;;;;;;;;;-144.99;80.46;52293.19;5019108;28;19977;-65
2023/08/27 11:06:40;;;;;;;;;;;;;;;-144.99;80.63;52325.81;5022301;28;20057;-66
2023/08/27 11:09:14;;;;;;;;;;;;;;;-144.99;80.64;52297.25;5026315;28;19952;-71
2023/08/27 11:11:41;;;;;;;;;;;;;;;-144.99;80.18;52276.88;5021413;28;20442;-72
2023/08/27 11:14:08;;;;;;;;;;;;;;;-144.99;79.75;52317.66;5013526;28;19946;-71
2023/08/27 11:16:43;;;;;;;;;;;;;;;-144.99;79.46;52256.50;5015667;28;19945;-72
2023/08/27 11:19:12;;;;;;;;;;;;;;;-144.99;79.49;52297.25;5016592;28;19938;-72
2023/08/27 11:21:42;;;;;;;;;;;;;;;-144.99;79.95;52287.06;5015092;28;20354;-72
2023/08/27 11:24:16;;;;;;;;;;;;;;;-144.99;80.36;52313.56;5018158;28;20383;-71
2023/08/27 11:26:43;;;;;;;;;;;;;;;-144.99;79.55;52323.75;5016421;28;19963;-71
2023/08/27 11:29:10;;;;;;;;;;;;;;;-144.99;79.67;52291.16;5014343;28;20040;-71
2023/08/27 11:31:39;;;;;;;;;;;;;;;-144.99;80.83;52301.34;5014312;28;19948;-72
2023/08/27 11:34:06;;;;;;;;;;;;;;;-144.99;81.22;52289.13;5017198;28;20232;-71
2023/08/27 11:36:34;;;;;;;;;;;;;;;-144.99;81.50;52333.94;5016554;28;20450;-71
2023/08/27 11:39:01;;;;;;;;;;;;;;;-144.99;81.64;52350.25;5023697;28;19940;-71
2023/08/27 11:41:33;;;;;;;;;;;;;;;-144.99;82.34;52327.84;5019941;28;20418;-71
2023/08/27 11:44:00;;;;;;;;;;;;;;;-144.99;83.29;52338.03;5020637;28;20003;-71
2023/08/27 11:46:26;;;;;;;;;;;;;;;-144.99;85.79;52342.09;5019276;28;19960;-72
2023/08/27 11:48:53;;;;;;;;;;;;;;;-144.99;88.58;52366.56;5021803;28;20072;-72
2023/08/27 11:51:20;;;;;;;;;;;;;;;-144.99;94.13;52391.03;5015628;28;19944;-72
2023/08/27 11:53:48;;;;;;;;;;;;;;;-144.99;100.00;52407.31;5012014;28;19974;-68
2023/08/27 11:56:15;;;;;;;;;;;;;;;-144.99;100.00;52468.47;5013967;28;20112;-69
2023/08/27 11:58:42;;;;;;;;;;;;;;;-144.99;100.00;52415.47;5013092;28;19946;-68
2023/08/27 12:01:11;;;;;;;;;;;;;;;-144.99;100.00;52444.03;5021520;28;20242;-70
2023/08/27 12:03:37;;;;;;;;;;;;;;;-144.99;100.00;52450.13;5025392;28;20031;-70
2023/08/27 12:06:04;;;;;;;;;;;;;;;-144.99;100.00;52382.88;5019654;28;19968;-70
2023/08/27 12:08:34;;;;;;;;;;;;;;;-144.99;100.00;52439.94;5022961;28;20038;-69
2023/08/27 12:11:02;;;;;;;;;;;;;;;-144.99;100.00;52376.75;5025756;28;20039;-70
2023/08/27 12:13:29;;;;;;;;;;;;;;;-144.99;100.00;52403.25;5024881;28;20165;-70
2023/08/27 12:15:55;;;;;;;;;;;;;;;-144.99;100.00;52386.94;5020732;28;19960;-71
2023/08/27 12:18:22;;;;;;;;;;;;;;;-144.99;100.00;52354.34;5020121;28;19943;-69
2023/08/27 12:20:49;;;;;;;;;;;;;;;-144.99;100.00;52362.50;5024083;28;19977;-70